KLYO/LYO METAR and TAF weather

Enter ICAO airport designator
Station Type Date Time Source
KLYO METAR 2022/06/28 08:55 UTC NOAA

KLYO 280855Z AUTO 17005KT 10SM CLR 12/10 A3029 RMK AO2 T01190103


Station Type Date Time Source
KLYO Decoded METAR 2022/06/28 08:55 UTC NOAA

Station name not available
Jun 28, 2022 - 04:55 AM EDT / 2022.06.28 0855 UTC
Wind: from the S (170 degrees) at 6 MPH (5 KT):0
Visibility: 10 mile(s):0
Sky conditions: clear
Temperature: 53.4 F (11.9 C)
Dew Point: 50.5 F (10.3 C)
Relative Humidity: 89%
Pressure (altimeter): 30.29 in. Hg (1025 hPa)
ob: KLYO 280855Z AUTO 17005KT 10SM CLR 12/10 A3029 RMK AO2 T01190103
cycle: 9

Station Type Date Time Source
KLYO TAF UTC NOAA

Error!

Example: see airport list